sensor_id;sensor_type;location;lat;lon;timestamp;temperature;humidity
152;DHT22;68;48.792;9.164;2023-08-21T00:00:41;24.80;89.70
152;DHT22;68;48.792;9.164;2023-08-21T00:03:09;24.80;89.70
152;DHT22;68;48.792;9.164;2023-08-21T00:05:36;24.80;89.70
152;DHT22;68;48.792;9.164;2023-08-21T00:08:04;24.80;89.70
152;DHT22;68;48.792;9.164;2023-08-21T00:10:30;24.80;89.70
152;DHT22;68;48.792;9.164;2023-08-21T00:12:58;24.80;89.60
152;DHT22;68;48.792;9.164;2023-08-21T00:15:25;24.80;89.60
152;DHT22;68;48.792;9.164;2023-08-21T00:17:52;24.70;89.80
152;DHT22;68;48.792;9.164;2023-08-21T00:20:20;24.80;89.80
152;DHT22;68;48.792;9.164;2023-08-21T00:22:47;24.80;89.90
152;DHT22;68;48.792;9.164;2023-08-21T00:25:15;24.80;89.90
152;DHT22;68;48.792;9.164;2023-08-21T00:27:41;24.80;89.60
152;DHT22;68;48.792;9.164;2023-08-21T00:30:09;24.80;89.90
152;DHT22;68;48.792;9.164;2023-08-21T00:32:36;24.70;89.90
152;DHT22;68;48.792;9.164;2023-08-21T00:35:03;24.70;90.30
152;DHT22;68;48.792;9.164;2023-08-21T00:37:32;24.70;90.40
152;DHT22;68;48.792;9.164;2023-08-21T00:39:58;24.70;90.40
152;DHT22;68;48.792;9.164;2023-08-21T00:42:26;25.00;90.30
152;DHT22;68;48.792;9.164;2023-08-21T00:44:52;25.30;89.40
152;DHT22;68;48.792;9.164;2023-08-21T00:47:19;25.30;88.60
152;DHT22;68;48.792;9.164;2023-08-21T00:49:46;25.40;88.60
152;DHT22;68;48.792;9.164;2023-08-21T00:52:14;25.30;88.30
152;DHT22;68;48.792;9.164;2023-08-21T00:54:43;25.40;88.10
152;DHT22;68;48.792;9.164;2023-08-21T00:57:10;25.40;88.30
152;DHT22;68;48.792;9.164;2023-08-21T00:59:38;25.20;88.50
152;DHT22;68;48.792;9.164;2023-08-21T01:02:05;25.00;89.10
152;DHT22;68;48.792;9.164;2023-08-21T01:04:32;24.80;89.70
152;DHT22;68;48.792;9.164;2023-08-21T01:06:59;24.80;90.00
152;DHT22;68;48.792;9.164;2023-08-21T01:09:31;25.00;89.70
152;DHT22;68;48.792;9.164;2023-08-21T01:12:06;25.10;88.90
152;DHT22;68;48.792;9.164;2023-08-21T01:14:42;24.80;89.40
152;DHT22;68;48.792;9.164;2023-08-21T01:17:10;24.70;89.80
152;DHT22;68;48.792;9.164;2023-08-21T01:19:41;24.50;90.20
152;DHT22;68;48.792;9.164;2023-08-21T01:22:09;24.30;90.50
152;DHT22;68;48.792;9.164;2023-08-21T01:24:38;24.30;90.70
152;DHT22;68;48.792;9.164;2023-08-21T01:27:05;24.30;90.70
152;DHT22;68;48.792;9.164;2023-08-21T01:29:32;24.20;91.00
152;DHT22;68;48.792;9.164;2023-08-21T01:32:07;24.10;91.20
152;DHT22;68;48.792;9.164;2023-08-21T01:34:34;24.00;91.30
152;DHT22;68;48.792;9.164;2023-08-21T01:37:04;24.00;91.50
152;DHT22;68;48.792;9.164;2023-08-21T01:39:32;24.00;91.60
152;DHT22;68;48.792;9.164;2023-08-21T01:42:00;24.00;91.50
152;DHT22;68;48.792;9.164;2023-08-21T01:44:27;23.90;91.70
152;DHT22;68;48.792;9.164;2023-08-21T01:46:54;23.90;91.80
152;DHT22;68;48.792;9.164;2023-08-21T01:49:21;23.90;91.80
152;DHT22;68;48.792;9.164;2023-08-21T01:51:47;23.80;91.80
152;DHT22;68;48.792;9.164;2023-08-21T01:54:14;23.80;91.80
152;DHT22;68;48.792;9.164;2023-08-21T01:56:41;23.80;91.70
152;DHT22;68;48.792;9.164;2023-08-21T01:59:09;23.70;91.70
152;DHT22;68;48.792;9.164;2023-08-21T02:01:36;23.70;91.60
152;DHT22;68;48.792;9.164;2023-08-21T02:04:03;23.70;91.50
152;DHT22;68;48.792;9.164;2023-08-21T02:06:29;23.70;91.50
152;DHT22;68;48.792;9.164;2023-08-21T02:08:56;23.70;91.30
152;DHT22;68;48.792;9.164;2023-08-21T02:11:23;23.70;91.20
152;DHT22;68;48.792;9.164;2023-08-21T02:13:50;23.70;91.00
152;DHT22;68;48.792;9.164;2023-08-21T02:16:18;23.70;91.30
152;DHT22;68;48.792;9.164;2023-08-21T02:18:45;23.80;91.20
152;DHT22;68;48.792;9.164;2023-08-21T02:21:12;23.80;91.20
152;DHT22;68;48.792;9.164;2023-08-21T02:23:39;23.70;91.10
152;DHT22;68;48.792;9.164;2023-08-21T02:26:05;23.60;90.80
152;DHT22;68;48.792;9.164;2023-08-21T02:28:32;23.60;90.70
152;DHT22;68;48.792;9.164;2023-08-21T02:30:59;23.50;90.30
152;DHT22;68;48.792;9.164;2023-08-21T02:33:27;23.50;90.30
152;DHT22;68;48.792;9.164;2023-08-21T02:35:54;23.50;90.20
152;DHT22;68;48.792;9.164;2023-08-21T02:38:21;23.40;90.10
152;DHT22;68;48.792;9.164;2023-08-21T02:40:47;23.40;90.10
152;DHT22;68;48.792;9.164;2023-08-21T02:43:14;23.40;90.50
152;DHT22;68;48.792;9.164;2023-08-21T02:45:41;23.40;91.20
152;DHT22;68;48.792;9.164;2023-08-21T02:48:08;23.40;91.00
152;DHT22;68;48.792;9.164;2023-08-21T02:50:36;23.40;91.50
152;DHT22;68;48.792;9.164;2023-08-21T02:53:03;23.40;91.40
152;DHT22;68;48.792;9.164;2023-08-21T02:55:30;23.20;91.60
152;DHT22;68;48.792;9.164;2023-08-21T02:57:57;23.20;91.60
152;DHT22;68;48.792;9.164;2023-08-21T03:00:24;23.20;91.50
152;DHT22;68;48.792;9.164;2023-08-21T03:02:50;23.20;91.40
152;DHT22;68;48.792;9.164;2023-08-21T03:05:18;23.20;91.30
152;DHT22;68;48.792;9.164;2023-08-21T03:07:47;23.20;91.40
152;DHT22;68;48.792;9.164;2023-08-21T03:10:13;23.20;91.40
152;DHT22;68;48.792;9.164;2023-08-21T03:12:40;23.30;91.50
152;DHT22;68;48.792;9.164;2023-08-21T03:15:07;23.50;91.90
152;DHT22;68;48.792;9.164;2023-08-21T03:17:34;23.30;91.80
152;DHT22;68;48.792;9.164;2023-08-21T03:20:01;23.30;91.70
152;DHT22;68;48.792;9.164;2023-08-21T03:22:30;23.20;91.70
152;DHT22;68;48.792;9.164;2023-08-21T03:24:58;23.30;91.30
152;DHT22;68;48.792;9.164;2023-08-21T03:27:25;23.20;91.50
152;DHT22;68;48.792;9.164;2023-08-21T03:29:52;23.10;91.40
152;DHT22;68;48.792;9.164;2023-08-21T03:32:19;23.10;91.30
152;DHT22;68;48.792;9.164;2023-08-21T03:34:45;23.00;91.30
152;DHT22;68;48.792;9.164;2023-08-21T03:37:12;23.00;91.10
152;DHT22;68;48.792;9.164;2023-08-21T03:39:39;23.00;91.00
152;DHT22;68;48.792;9.164;2023-08-21T03:42:07;22.90;91.00
152;DHT22;68;48.792;9.164;2023-08-21T03:44:34;22.90;90.80
152;DHT22;68;48.792;9.164;2023-08-21T03:47:01;22.80;90.60
152;DHT22;68;48.792;9.164;2023-08-21T03:49:27;22.80;89.80
152;DHT22;68;48.792;9.164;2023-08-21T03:51:54;22.80;89.90
152;DHT22;68;48.792;9.164;2023-08-21T03:54:21;22.80;90.00
152;DHT22;68;48.792;9.164;2023-08-21T03:56:48;22.80;90.60
152;DHT22;68;48.792;9.164;2023-08-21T03:59:16;22.80;90.50
152;DHT22;68;48.792;9.164;2023-08-21T04:01:42;22.70;90.20
152;DHT22;68;48.792;9.164;2023-08-21T04:04:09;22.80;90.10
152;DHT22;68;48.792;9.164;2023-08-21T04:06:36;22.80;90.00
152;DHT22;68;48.792;9.164;2023-08-21T04:09:03;22.80;89.70
152;DHT22;68;48.792;9.164;2023-08-21T04:11:31;22.70;89.90
152;DHT22;68;48.792;9.164;2023-08-21T04:13:59;22.70;89.10
152;DHT22;68;48.792;9.164;2023-08-21T04:16:28;22.70;88.70
152;DHT22;68;48.792;9.164;2023-08-21T04:18:56;22.70;88.90
152;DHT22;68;48.792;9.164;2023-08-21T04:21:22;22.60;88.30
152;DHT22;68;48.792;9.164;2023-08-21T04:23:49;22.60;88.30
152;DHT22;68;48.792;9.164;2023-08-21T04:26:16;22.70;88.20
152;DHT22;68;48.792;9.164;2023-08-21T04:28:43;22.60;88.80
152;DHT22;68;48.792;9.164;2023-08-21T04:31:09;22.50;88.60
152;DHT22;68;48.792;9.164;2023-08-21T04:33:37;22.50;87.90
152;DHT22;68;48.792;9.164;2023-08-21T04:36:05;22.40;87.10
152;DHT22;68;48.792;9.164;2023-08-21T04:38:32;22.50;86.80
152;DHT22;68;48.792;9.164;2023-08-21T04:41:05;22.70;86.60
152;DHT22;68;48.792;9.164;2023-08-21T04:43:33;22.90;88.20
152;DHT22;68;48.792;9.164;2023-08-21T04:45:59;23.00;89.10
152;DHT22;68;48.792;9.164;2023-08-21T04:48:26;23.10;89.90
152;DHT22;68;48.792;9.164;2023-08-21T04:50:54;22.90;89.20
152;DHT22;68;48.792;9.164;2023-08-21T04:53:21;22.70;87.80
152;DHT22;68;48.792;9.164;2023-08-21T04:55:48;22.60;87.20
152;DHT22;68;48.792;9.164;2023-08-21T04:58:14;22.60;86.90
152;DHT22;68;48.792;9.164;2023-08-21T05:00:44;22.50;87.20
152;DHT22;68;48.792;9.164;2023-08-21T05:03:11;22.50;87.60
152;DHT22;68;48.792;9.164;2023-08-21T05:05:38;22.50;87.40
152;DHT22;68;48.792;9.164;2023-08-21T05:08:07;22.50;87.70
152;DHT22;68;48.792;9.164;2023-08-21T05:10:34;22.60;88.10
152;DHT22;68;48.792;9.164;2023-08-21T05:13:00;22.60;87.80
152;DHT22;68;48.792;9.164;2023-08-21T05:15:27;22.60;87.70
152;DHT22;68;48.792;9.164;2023-08-21T05:17:54;22.60;87.20
152;DHT22;68;48.792;9.164;2023-08-21T05:20:21;22.60;87.30
152;DHT22;68;48.792;9.164;2023-08-21T05:22:47;22.60;86.80
152;DHT22;68;48.792;9.164;2023-08-21T05:25:16;22.70;87.20
152;DHT22;68;48.792;9.164;2023-08-21T05:27:42;22.80;87.80
152;DHT22;68;48.792;9.164;2023-08-21T05:30:10;22.90;88.90
152;DHT22;68;48.792;9.164;2023-08-21T05:32:38;22.80;88.60
152;DHT22;68;48.792;9.164;2023-08-21T05:35:05;23.00;88.70
152;DHT22;68;48.792;9.164;2023-08-21T05:37:33;23.20;88.80
152;DHT22;68;48.792;9.164;2023-08-21T05:40:01;23.20;89.50
152;DHT22;68;48.792;9.164;2023-08-21T05:42:30;23.50;90.20
152;DHT22;68;48.792;9.164;2023-08-21T05:44:57;23.80;91.10
152;DHT22;68;48.792;9.164;2023-08-21T05:47:23;24.00;91.60
152;DHT22;68;48.792;9.164;2023-08-21T05:49:52;24.20;91.80
152;DHT22;68;48.792;9.164;2023-08-21T05:52:20;24.30;91.90
152;DHT22;68;48.792;9.164;2023-08-21T05:54:47;24.50;91.90
152;DHT22;68;48.792;9.164;2023-08-21T05:57:14;24.50;91.80
152;DHT22;68;48.792;9.164;2023-08-21T05:59:45;24.50;91.90
152;DHT22;68;48.792;9.164;2023-08-21T06:02:12;24.50;91.80
152;DHT22;68;48.792;9.164;2023-08-21T06:04:41;24.60;91.80
152;DHT22;68;48.792;9.164;2023-08-21T06:07:08;24.70;91.70
152;DHT22;68;48.792;9.164;2023-08-21T06:09:35;24.60;91.80
152;DHT22;68;48.792;9.164;2023-08-21T06:12:02;24.60;91.80
152;DHT22;68;48.792;9.164;2023-08-21T06:14:29;24.40;91.80
152;DHT22;68;48.792;9.164;2023-08-21T06:16:59;24.30;91.70
152;DHT22;68;48.792;9.164;2023-08-21T06:19:27;24.20;91.50
152;DHT22;68;48.792;9.164;2023-08-21T06:21:54;24.20;91.40
152;DHT22;68;48.792;9.164;2023-08-21T06:24:21;24.30;91.40
152;DHT22;68;48.792;9.164;2023-08-21T06:26:48;24.40;91.70
152;DHT22;68;48.792;9.164;2023-08-21T06:29:15;24.40;91.70
152;DHT22;68;48.792;9.164;2023-08-21T06:31:42;24.40;91.50
152;DHT22;68;48.792;9.164;2023-08-21T06:34:10;24.30;91.30
152;DHT22;68;48.792;9.164;2023-08-21T06:36:37;24.40;91.60
152;DHT22;68;48.792;9.164;2023-08-21T06:39:05;24.40;91.70
152;DHT22;68;48.792;9.164;2023-08-21T06:41:32;24.40;91.70
152;DHT22;68;48.792;9.164;2023-08-21T06:43:58;24.60;91.90
152;DHT22;68;48.792;9.164;2023-08-21T06:46:25;24.80;91.70
152;DHT22;68;48.792;9.164;2023-08-21T06:48:52;24.90;91.50
152;DHT22;68;48.792;9.164;2023-08-21T06:51:20;24.70;91.70
152;DHT22;68;48.792;9.164;2023-08-21T06:53:47;24.80;91.70
152;DHT22;68;48.792;9.164;2023-08-21T06:56:14;24.80;91.70
152;DHT22;68;48.792;9.164;2023-08-21T06:58:41;25.00;91.80
152;DHT22;68;48.792;9.164;2023-08-21T07:01:08;25.40;91.20
152;DHT22;68;48.792;9.164;2023-08-21T07:03:35;25.50;90.40
152;DHT22;68;48.792;9.164;2023-08-21T07:06:01;25.50;90.30
152;DHT22;68;48.792;9.164;2023-08-21T07:08:30;25.70;89.90
152;DHT22;68;48.792;9.164;2023-08-21T07:10:56;25.70;89.00
152;DHT22;68;48.792;9.164;2023-08-21T07:13:23;25.70;89.30
152;DHT22;68;48.792;9.164;2023-08-21T07:15:52;25.80;89.30
152;DHT22;68;48.792;9.164;2023-08-21T07:18:20;25.70;89.70
152;DHT22;68;48.792;9.164;2023-08-21T07:20:47;25.70;90.30
152;DHT22;68;48.792;9.164;2023-08-21T07:23:13;25.80;90.10
152;DHT22;68;48.792;9.164;2023-08-21T07:25:42;26.00;89.40
152;DHT22;68;48.792;9.164;2023-08-21T07:28:09;26.10;88.90
152;DHT22;68;48.792;9.164;2023-08-21T07:30:37;26.20;87.90
152;DHT22;68;48.792;9.164;2023-08-21T07:33:04;26.10;88.70
152;DHT22;68;48.792;9.164;2023-08-21T07:35:31;26.00;87.30
152;DHT22;68;48.792;9.164;2023-08-21T07:37:58;26.10;86.90
152;DHT22;68;48.792;9.164;2023-08-21T07:40:25;26.10;86.40
152;DHT22;68;48.792;9.164;2023-08-21T07:42:53;26.30;86.00
152;DHT22;68;48.792;9.164;2023-08-21T07:45:20;26.40;85.10
152;DHT22;68;48.792;9.164;2023-08-21T07:47:47;26.50;83.20
152;DHT22;68;48.792;9.164;2023-08-21T07:50:14;26.50;83.60
152;DHT22;68;48.792;9.164;2023-08-21T07:52:42;26.40;85.10
152;DHT22;68;48.792;9.164;2023-08-21T07:55:09;26.60;84.50
152;DHT22;68;48.792;9.164;2023-08-21T07:57:35;26.60;84.60
152;DHT22;68;48.792;9.164;2023-08-21T08:00:04;26.70;83.70
152;DHT22;68;48.792;9.164;2023-08-21T08:02:33;26.70;83.00
152;DHT22;68;48.792;9.164;2023-08-21T08:05:00;26.70;84.30
152;DHT22;68;48.792;9.164;2023-08-21T08:07:27;26.90;84.60
152;DHT22;68;48.792;9.164;2023-08-21T08:09:54;26.90;84.60
152;DHT22;68;48.792;9.164;2023-08-21T08:12:21;26.80;84.40
152;DHT22;68;48.792;9.164;2023-08-21T08:14:47;26.80;83.50
152;DHT22;68;48.792;9.164;2023-08-21T08:17:15;26.90;83.70
152;DHT22;68;48.792;9.164;2023-08-21T08:19:42;27.10;83.80
152;DHT22;68;48.792;9.164;2023-08-21T08:22:09;27.30;82.70
152;DHT22;68;48.792;9.164;2023-08-21T08:24:36;27.40;82.10
152;DHT22;68;48.792;9.164;2023-08-21T08:27:02;27.20;81.70
152;DHT22;68;48.792;9.164;2023-08-21T08:29:29;27.10;82.50
152;DHT22;68;48.792;9.164;2023-08-21T08:31:56;27.30;82.70
152;DHT22;68;48.792;9.164;2023-08-21T08:34:24;27.50;81.00
152;DHT22;68;48.792;9.164;2023-08-21T08:36:51;27.60;81.70
152;DHT22;68;48.792;9.164;2023-08-21T08:39:18;27.60;81.20
152;DHT22;68;48.792;9.164;2023-08-21T08:41:50;27.70;82.30
152;DHT22;68;48.792;9.164;2023-08-21T08:44:19;27.70;81.90
152;DHT22;68;48.792;9.164;2023-08-21T08:46:47;27.90;82.10
152;DHT22;68;48.792;9.164;2023-08-21T08:49:14;28.20;80.50
152;DHT22;68;48.792;9.164;2023-08-21T08:51:43;28.40;80.50
152;DHT22;68;48.792;9.164;2023-08-21T08:54:10;28.10;79.10
152;DHT22;68;48.792;9.164;2023-08-21T08:56:38;28.00;79.90
152;DHT22;68;48.792;9.164;2023-08-21T08:59:07;28.00;80.70
152;DHT22;68;48.792;9.164;2023-08-21T09:01:34;28.00;79.90
152;DHT22;68;48.792;9.164;2023-08-21T09:04:01;28.00;79.40
152;DHT22;68;48.792;9.164;2023-08-21T09:06:29;27.90;80.90
152;DHT22;68;48.792;9.164;2023-08-21T09:08:57;28.00;80.80
152;DHT22;68;48.792;9.164;2023-08-21T09:11:24;28.00;80.70
152;DHT22;68;48.792;9.164;2023-08-21T09:13:52;28.30;79.90
152;DHT22;68;48.792;9.164;2023-08-21T09:16:19;28.40;79.80
152;DHT22;68;48.792;9.164;2023-08-21T09:18:47;28.40;78.60
152;DHT22;68;48.792;9.164;2023-08-21T09:21:16;28.40;78.70
152;DHT22;68;48.792;9.164;2023-08-21T09:23:43;28.70;78.70
152;DHT22;68;48.792;9.164;2023-08-21T09:26:18;28.70;77.90
152;DHT22;68;48.792;9.164;2023-08-21T09:28:46;28.60;77.20
152;DHT22;68;48.792;9.164;2023-08-21T09:31:12;28.60;77.10
152;DHT22;68;48.792;9.164;2023-08-21T09:33:40;28.90;76.20
152;DHT22;68;48.792;9.164;2023-08-21T09:36:09;29.20;76.30
152;DHT22;68;48.792;9.164;2023-08-21T09:38:38;29.40;74.20
152;DHT22;68;48.792;9.164;2023-08-21T09:41:05;29.50;75.00
152;DHT22;68;48.792;9.164;2023-08-21T09:43:41;29.40;75.10
152;DHT22;68;48.792;9.164;2023-08-21T09:46:09;29.60;73.50
152;DHT22;68;48.792;9.164;2023-08-21T09:48:41;29.50;72.60
152;DHT22;68;48.792;9.164;2023-08-21T09:51:08;29.40;73.90
152;DHT22;68;48.792;9.164;2023-08-21T09:53:35;29.40;74.30
152;DHT22;68;48.792;9.164;2023-08-21T09:56:03;29.40;74.40
152;DHT22;68;48.792;9.164;2023-08-21T09:58:30;29.40;75.90
152;DHT22;68;48.792;9.164;2023-08-21T10:00:59;29.50;76.40
152;DHT22;68;48.792;9.164;2023-08-21T10:03:26;29.70;74.70
152;DHT22;68;48.792;9.164;2023-08-21T10:05:55;29.70;74.30
152;DHT22;68;48.792;9.164;2023-08-21T10:08:25;29.70;73.90
152;DHT22;68;48.792;9.164;2023-08-21T10:10:52;29.70;73.00
152;DHT22;68;48.792;9.164;2023-08-21T10:13:19;30.00;72.80
152;DHT22;68;48.792;9.164;2023-08-21T10:15:46;30.10;71.80
152;DHT22;68;48.792;9.164;2023-08-21T10:18:22;30.00;71.00
152;DHT22;68;48.792;9.164;2023-08-21T10:20:50;29.90;71.90
152;DHT22;68;48.792;9.164;2023-08-21T10:23:28;29.90;72.30
152;DHT22;68;48.792;9.164;2023-08-21T10:25:55;30.10;72.50
152;DHT22;68;48.792;9.164;2023-08-21T10:28:22;30.40;71.60
152;DHT22;68;48.792;9.164;2023-08-21T10:30:49;30.20;70.70
152;DHT22;68;48.792;9.164;2023-08-21T10:33:16;30.20;70.60
152;DHT22;68;48.792;9.164;2023-08-21T10:35:46;30.10;71.00
152;DHT22;68;48.792;9.164;2023-08-21T10:38:14;30.00;70.10
152;DHT22;68;48.792;9.164;2023-08-21T10:41:03;30.00;70.80
152;DHT22;68;48.792;9.164;2023-08-21T10:43:38;30.20;70.70
152;DHT22;68;48.792;9.164;2023-08-21T10:46:05;30.50;70.90
152;DHT22;68;48.792;9.164;2023-08-21T10:48:32;30.60;69.20
152;DHT22;68;48.792;9.164;2023-08-21T10:51:02;30.50;70.20
152;DHT22;68;48.792;9.164;2023-08-21T10:53:30;30.80;71.20
152;DHT22;68;48.792;9.164;2023-08-21T10:55:57;30.60;68.90
152;DHT22;68;48.792;9.164;2023-08-21T10:58:27;30.40;70.30
152;DHT22;68;48.792;9.164;2023-08-21T11:00:57;30.30;69.80
152;DHT22;68;48.792;9.164;2023-08-21T11:03:24;30.30;71.10
152;DHT22;68;48.792;9.164;2023-08-21T11:06:02;30.50;69.30
152;DHT22;68;48.792;9.164;2023-08-21T11:08:30;30.80;69.00
152;DHT22;68;48.792;9.164;2023-08-21T11:10:57;30.70;68.20
152;DHT22;68;48.792;9.164;2023-08-21T11:13:24;30.80;69.50
152;DHT22;68;48.792;9.164;2023-08-21T11:15:57;30.70;68.70
152;DHT22;68;48.792;9.164;2023-08-21T11:18:30;30.90;68.60
152;DHT22;68;48.792;9.164;2023-08-21T11:21:05;31.10;68.50
152;DHT22;68;48.792;9.164;2023-08-21T11:23:32;31.10;68.40
152;DHT22;68;48.792;9.164;2023-08-21T11:26:00;31.30;67.80
152;DHT22;68;48.792;9.164;2023-08-21T11:28:28;31.10;66.60
152;DHT22;68;48.792;9.164;2023-08-21T11:30:55;31.10;68.80
152;DHT22;68;48.792;9.164;2023-08-21T11:33:22;31.30;67.80
152;DHT22;68;48.792;9.164;2023-08-21T11:35:49;31.30;68.50
152;DHT22;68;48.792;9.164;2023-08-21T11:38:20;31.20;68.20
152;DHT22;68;48.792;9.164;2023-08-21T11:40:54;31.10;68.60
152;DHT22;68;48.792;9.164;2023-08-21T11:43:21;30.90;67.00
152;DHT22;68;48.792;9.164;2023-08-21T11:45:48;31.10;67.30
152;DHT22;68;48.792;9.164;2023-08-21T11:48:15;31.40;66.80
152;DHT22;68;48.792;9.164;2023-08-21T11:50:42;31.60;67.20
152;DHT22;68;48.792;9.164;2023-08-21T11:53:08;31.60;68.30
152;DHT22;68;48.792;9.164;2023-08-21T11:55:38;31.70;65.90
152;DHT22;68;48.792;9.164;2023-08-21T11:58:05;31.90;66.00
152;DHT22;68;48.792;9.164;2023-08-21T12:00:32;32.10;65.50
152;DHT22;68;48.792;9.164;2023-08-21T12:03:00;32.10;65.10
152;DHT22;68;48.792;9.164;2023-08-21T12:05:28;32.00;64.60
152;DHT22;68;48.792;9.164;2023-08-21T12:07:55;32.00;66.00
152;DHT22;68;48.792;9.164;2023-08-21T12:10:23;32.10;65.20
152;DHT22;68;48.792;9.164;2023-08-21T12:12:52;32.20;65.90
152;DHT22;68;48.792;9.164;2023-08-21T12:15:19;31.80;63.90
152;DHT22;68;48.792;9.164;2023-08-21T12:17:46;31.70;64.60
152;DHT22;68;48.792;9.164;2023-08-21T12:20:13;31.80;64.80
152;DHT22;68;48.792;9.164;2023-08-21T12:22:40;31.70;64.10
152;DHT22;68;48.792;9.164;2023-08-21T12:25:07;31.90;65.50
152;DHT22;68;48.792;9.164;2023-08-21T12:27:34;32.00;66.70
152;DHT22;68;48.792;9.164;2023-08-21T12:30:03;32.20;64.20
152;DHT22;68;48.792;9.164;2023-08-21T12:32:30;32.30;65.50
152;DHT22;68;48.792;9.164;2023-08-21T12:34:56;32.00;66.30
152;DHT22;68;48.792;9.164;2023-08-21T12:37:23;32.00;65.40
152;DHT22;68;48.792;9.164;2023-08-21T12:39:51;32.10;65.10
152;DHT22;68;48.792;9.164;2023-08-21T12:42:17;32.30;64.90
152;DHT22;68;48.792;9.164;2023-08-21T12:44:44;32.50;63.80
152;DHT22;68;48.792;9.164;2023-08-21T12:47:12;32.60;63.60
152;DHT22;68;48.792;9.164;2023-08-21T12:49:39;32.20;63.20
152;DHT22;68;48.792;9.164;2023-08-21T12:52:06;32.40;64.70
152;DHT22;68;48.792;9.164;2023-08-21T12:54:32;32.30;64.70
152;DHT22;68;48.792;9.164;2023-08-21T12:56:59;32.20;65.30
152;DHT22;68;48.792;9.164;2023-08-21T12:59:26;31.80;64.60
152;DHT22;68;48.792;9.164;2023-08-21T13:01:53;31.60;64.50
152;DHT22;68;48.792;9.164;2023-08-21T13:04:21;31.50;66.60
152;DHT22;68;48.792;9.164;2023-08-21T13:06:47;31.60;66.50
152;DHT22;68;48.792;9.164;2023-08-21T13:09:14;31.50;65.60
152;DHT22;68;48.792;9.164;2023-08-21T13:11:41;31.40;66.00
152;DHT22;68;48.792;9.164;2023-08-21T13:14:08;31.70;65.90
152;DHT22;68;48.792;9.164;2023-08-21T13:16:34;31.60;65.40
152;DHT22;68;48.792;9.164;2023-08-21T13:19:01;31.60;64.40
152;DHT22;68;48.792;9.164;2023-08-21T13:21:29;31.60;64.40
152;DHT22;68;48.792;9.164;2023-08-21T13:23:56;31.40;65.40
152;DHT22;68;48.792;9.164;2023-08-21T13:26:23;31.40;65.70
152;DHT22;68;48.792;9.164;2023-08-21T13:28:51;31.50;67.10
152;DHT22;68;48.792;9.164;2023-08-21T13:31:17;31.50;65.80
152;DHT22;68;48.792;9.164;2023-08-21T13:33:45;31.60;66.40
152;DHT22;68;48.792;9.164;2023-08-21T13:36:12;31.70;65.00
152;DHT22;68;48.792;9.164;2023-08-21T13:38:40;31.80;64.60
152;DHT22;68;48.792;9.164;2023-08-21T13:41:07;31.90;64.80
152;DHT22;68;48.792;9.164;2023-08-21T13:43:35;31.90;64.70
152;DHT22;68;48.792;9.164;2023-08-21T13:46:02;32.00;66.00
152;DHT22;68;48.792;9.164;2023-08-21T13:48:29;32.00;68.20
152;DHT22;68;48.792;9.164;2023-08-21T13:50:56;32.00;64.20
152;DHT22;68;48.792;9.164;2023-08-21T13:53:23;32.00;65.10
152;DHT22;68;48.792;9.164;2023-08-21T13:55:51;32.00;63.80
152;DHT22;68;48.792;9.164;2023-08-21T13:58:18;32.10;66.10
152;DHT22;68;48.792;9.164;2023-08-21T14:00:44;31.80;64.50
152;DHT22;68;48.792;9.164;2023-08-21T14:03:11;31.80;64.60
152;DHT22;68;48.792;9.164;2023-08-21T14:05:38;31.70;64.80
152;DHT22;68;48.792;9.164;2023-08-21T14:08:05;31.70;64.20
152;DHT22;68;48.792;9.164;2023-08-21T14:10:32;31.70;64.70
152;DHT22;68;48.792;9.164;2023-08-21T14:13:01;31.50;64.40
152;DHT22;68;48.792;9.164;2023-08-21T14:15:29;31.50;65.10
152;DHT22;68;48.792;9.164;2023-08-21T14:17:55;31.70;66.30
152;DHT22;68;48.792;9.164;2023-08-21T14:20:22;31.60;65.10
152;DHT22;68;48.792;9.164;2023-08-21T14:22:49;31.60;64.80
152;DHT22;68;48.792;9.164;2023-08-21T14:25:17;31.80;66.20
152;DHT22;68;48.792;9.164;2023-08-21T14:27:43;31.70;64.20
152;DHT22;68;48.792;9.164;2023-08-21T14:30:12;31.50;64.50
152;DHT22;68;48.792;9.164;2023-08-21T14:32:39;31.50;65.50
152;DHT22;68;48.792;9.164;2023-08-21T14:35:08;31.40;65.00
152;DHT22;68;48.792;9.164;2023-08-21T14:37:34;31.40;66.30
152;DHT22;68;48.792;9.164;2023-08-21T14:40:01;31.60;67.40
152;DHT22;68;48.792;9.164;2023-08-21T14:42:32;31.60;64.60
152;DHT22;68;48.792;9.164;2023-08-21T14:44:59;31.60;65.30
152;DHT22;68;48.792;9.164;2023-08-21T14:47:27;31.70;65.10
152;DHT22;68;48.792;9.164;2023-08-21T14:49:54;31.90;64.60
152;DHT22;68;48.792;9.164;2023-08-21T14:52:21;31.90;64.20
152;DHT22;68;48.792;9.164;2023-08-21T14:54:48;31.90;64.10
152;DHT22;68;48.792;9.164;2023-08-21T14:57:16;31.80;63.90
152;DHT22;68;48.792;9.164;2023-08-21T14:59:43;32.00;65.50
152;DHT22;68;48.792;9.164;2023-08-21T15:02:10;31.90;64.20
152;DHT22;68;48.792;9.164;2023-08-21T15:04:38;32.00;65.00
152;DHT22;68;48.792;9.164;2023-08-21T15:07:05;32.10;65.10
152;DHT22;68;48.792;9.164;2023-08-21T15:09:32;32.00;63.70
152;DHT22;68;48.792;9.164;2023-08-21T15:11:58;31.70;65.40
152;DHT22;68;48.792;9.164;2023-08-21T15:14:25;31.70;64.80
152;DHT22;68;48.792;9.164;2023-08-21T15:16:52;31.70;65.90
152;DHT22;68;48.792;9.164;2023-08-21T15:19:19;31.70;66.60
152;DHT22;68;48.792;9.164;2023-08-21T15:21:47;31.60;66.00
152;DHT22;68;48.792;9.164;2023-08-21T15:24:14;31.70;66.00
152;DHT22;68;48.792;9.164;2023-08-21T15:29:08;31.60;64.60
152;DHT22;68;48.792;9.164;2023-08-21T15:31:35;31.60;65.10
152;DHT22;68;48.792;9.164;2023-08-21T15:34:02;31.80;65.10
152;DHT22;68;48.792;9.164;2023-08-21T15:36:28;31.80;65.10
152;DHT22;68;48.792;9.164;2023-08-21T15:38:57;31.70;64.90
152;DHT22;68;48.792;9.164;2023-08-21T15:43:51;31.50;65.70
152;DHT22;68;48.792;9.164;2023-08-21T15:46:18;31.40;67.40
152;DHT22;68;48.792;9.164;2023-08-21T15:48:45;31.60;66.80
152;DHT22;68;48.792;9.164;2023-08-21T15:51:12;31.60;66.20
152;DHT22;68;48.792;9.164;2023-08-21T15:53:38;31.50;66.00
152;DHT22;68;48.792;9.164;2023-08-21T15:56:07;31.30;66.00
152;DHT22;68;48.792;9.164;2023-08-21T15:58:33;31.20;66.50
152;DHT22;68;48.792;9.164;2023-08-21T16:01:00;31.20;66.30
152;DHT22;68;48.792;9.164;2023-08-21T16:03:27;31.30;67.40
152;DHT22;68;48.792;9.164;2023-08-21T16:05:54;31.30;67.00
152;DHT22;68;48.792;9.164;2023-08-21T16:08:20;31.30;67.70
152;DHT22;68;48.792;9.164;2023-08-21T16:10:48;31.40;66.50
152;DHT22;68;48.792;9.164;2023-08-21T16:13:16;31.30;66.80
152;DHT22;68;48.792;9.164;2023-08-21T16:15:44;31.20;67.80
152;DHT22;68;48.792;9.164;2023-08-21T16:18:11;31.40;67.20
152;DHT22;68;48.792;9.164;2023-08-21T16:20:37;31.30;66.80
152;DHT22;68;48.792;9.164;2023-08-21T16:23:04;31.30;67.80
152;DHT22;68;48.792;9.164;2023-08-21T16:25:31;31.10;67.30
152;DHT22;68;48.792;9.164;2023-08-21T16:27:58;31.20;67.40
152;DHT22;68;48.792;9.164;2023-08-21T16:30:26;31.30;68.50
152;DHT22;68;48.792;9.164;2023-08-21T16:32:53;31.40;66.80
152;DHT22;68;48.792;9.164;2023-08-21T16:35:20;31.20;66.50
152;DHT22;68;48.792;9.164;2023-08-21T16:37:47;31.20;66.60
152;DHT22;68;48.792;9.164;2023-08-21T16:40:14;31.10;66.60
152;DHT22;68;48.792;9.164;2023-08-21T16:42:41;31.00;66.90
152;DHT22;68;48.792;9.164;2023-08-21T16:45:08;31.10;67.70
152;DHT22;68;48.792;9.164;2023-08-21T16:47:39;31.10;68.00
152;DHT22;68;48.792;9.164;2023-08-21T16:50:07;31.00;67.40
152;DHT22;68;48.792;9.164;2023-08-21T16:52:33;31.00;68.40
152;DHT22;68;48.792;9.164;2023-08-21T16:55:00;31.10;67.80
152;DHT22;68;48.792;9.164;2023-08-21T16:57:28;31.10;67.20